This is the latest recevied weather packets stored in our database for station/object EA5GTE-12. If no packets are shown the sender has not sent any weather packets the latest 10 day(s).
| Time | Temp. | Humidity | Pressure | Rain* | Wind** | Luminosity | Snow |
|---|---|---|---|---|---|---|---|
| 1787446385 | 19.44° C | 100% | 940.4 hPa | - | - | - | - |
| 1787445485 | 20° C | 100% | 940.4 hPa | - | - | - | - |
| 1787444585 | 20° C | 100% | 940.4 hPa | - | - | - | - |
| 1787443684 | 20° C | 100% | 940.5 hPa | - | - | - | - |
| 1787442784 | 20° C | 100% | 940.6 hPa | - | - | - | - |
| 1787441884 | 20° C | 100% | 940.6 hPa | - | - | - | - |
| 1787440984 | 20.56° C | 100% | 940.5 hPa | - | - | - | - |
| 1787440084 | 20.56° C | 100% | 940.5 hPa | - | - | - | - |
| 1787439184 | 20.56° C | 100% | 940.4 hPa | - | - | - | - |
| 1787438283 | 21.11° C | 100% | 940.4 hPa | - | - | - | - |
| 1787436483 | 21.11° C | 100% | 940.2 hPa | - | - | - | - |
| 1787435583 | 21.67° C | 100% | 940 hPa | - | - | - | - |
| 1787434683 | 21.67° C | 100% | 940 hPa | - | - | - | - |
| 1787433783 | 22.22° C | 100% | 940 hPa | - | - | - | - |
| 1787432883 | 22.78° C | 100% | 939.9 hPa | - | - | - | - |
| 1787431983 | 22.78° C | 100% | 939.9 hPa | - | - | - | - |
| 1787431083 | 22.78° C | 100% | 939.8 hPa | - | - | - | - |
| 1787430183 | 23.33° C | 100% | 939.7 hPa | - | - | - | - |
| 1787429283 | 23.89° C | 96% | 939.5 hPa | - | - | - | - |
| 1787428383 | 23.89° C | 87% | 939.1 hPa | - | - | - | - |
| 1787427483 | 24.44° C | 79% | 938.9 hPa | - | - | - | - |
| 1787426582 | 25° C | 73% | 938.6 hPa | - | - | - | - |
| 1787425683 | 25.56° C | 69% | 938.1 hPa | - | - | - | - |
| 1787424782 | 26.11° C | 64% | 937.7 hPa | - | - | - | - |
| 1787423882 | 27.22° C | 58% | 937.3 hPa | - | - | - | - |
* Rain since midnight (hover to see other rain measurements)
** Current wind speed in m/s (hover to see current wind gust speed)